createdAt,value
2023-01-19T05:15:22.568Z,53.80
2023-01-19T05:16:22.640Z,62.50
2023-01-19T05:17:22.536Z,60.10
2023-01-19T05:18:22.514Z,63.30
2023-01-19T05:19:22.503Z,56.00
2023-01-19T05:20:22.494Z,66.60
2023-01-19T05:21:22.562Z,47.70
2023-01-19T05:22:22.501Z,66.10
2023-01-19T05:23:22.496Z,59.00
2023-01-19T05:24:22.449Z,63.10
2023-01-19T05:25:22.444Z,62.20
2023-01-19T05:26:22.414Z,58.30
2023-01-19T05:27:22.491Z,53.30
2023-01-19T05:28:22.410Z,58.40
2023-01-19T05:29:22.421Z,56.60
2023-01-19T05:30:22.447Z,66.00
2023-01-19T05:31:22.507Z,67.80
2023-01-19T05:32:22.402Z,58.10
2023-01-19T05:33:22.430Z,66.70
2023-01-19T05:34:22.351Z,60.20
2023-01-19T05:35:34.801Z,61.00
2023-01-19T05:36:23.291Z,73.80
2023-01-19T05:37:22.320Z,61.80
2023-01-19T05:38:34.300Z,67.80
2023-01-19T05:39:23.274Z,66.30
2023-01-19T05:40:22.270Z,61.90
2023-01-19T05:41:22.251Z,57.50
2023-01-19T05:42:22.238Z,62.00
2023-01-19T05:43:22.209Z,63.10
2023-01-19T05:44:22.203Z,61.40
2023-01-19T05:45:22.266Z,64.60
2023-01-19T05:46:22.209Z,76.50
2023-01-19T05:47:22.182Z,63.20
2023-01-19T05:48:22.243Z,60.30
2023-01-19T05:49:22.138Z,59.20
2023-01-19T05:50:22.160Z,61.20
2023-01-19T05:51:22.108Z,73.80
2023-01-19T05:52:22.117Z,66.40
2023-01-19T05:53:22.097Z,63.90
2023-01-19T05:54:22.071Z,63.10
2023-01-19T05:55:22.123Z,65.50
2023-01-19T05:56:22.052Z,52.50
2023-01-19T05:57:22.038Z,60.40
2023-01-19T05:58:22.015Z,59.20
2023-01-19T05:59:22.015Z,61.90
2023-01-19T06:00:22.008Z,55.80
2023-01-19T06:01:21.979Z,53.20
2023-01-19T06:02:22.002Z,56.70
2023-01-19T06:03:21.971Z,58.70
2023-01-19T06:04:21.934Z,64.90
2023-01-19T06:05:21.945Z,61.10
2023-01-19T06:06:21.914Z,58.20
2023-01-19T06:07:23.838Z,53.30
2023-01-19T06:08:21.885Z,52.50
2023-01-19T06:09:21.883Z,50.80
2023-01-19T06:10:21.870Z,53.60
2023-01-19T06:11:21.869Z,60.00
2023-01-19T06:12:21.832Z,57.20
2023-01-19T06:13:21.838Z,61.70
2023-01-19T06:14:21.811Z,46.40
2023-01-19T06:15:21.812Z,44.10
2023-01-19T06:16:21.820Z,51.50
2023-01-19T06:17:21.784Z,48.80
2023-01-19T06:18:21.771Z,39.70
2023-01-19T06:19:21.757Z,43.30
2023-01-19T06:20:21.751Z,42.90
2023-01-19T06:21:21.730Z,40.30
2023-01-19T06:22:21.710Z,39.90
2023-01-19T06:23:21.703Z,44.80
2023-01-19T06:24:21.690Z,52.80
2023-01-19T06:25:21.689Z,37.80
2023-01-19T06:26:21.665Z,33.30
2023-01-19T06:27:21.660Z,37.30
2023-01-19T06:28:21.638Z,42.90
2023-01-19T06:29:21.623Z,44.80
2023-01-19T06:30:21.623Z,41.10
2023-01-19T06:31:21.677Z,40.50
2023-01-19T06:32:21.585Z,43.70
2023-01-19T06:33:21.567Z,40.00
2023-01-19T06:34:21.585Z,41.30
2023-01-19T06:35:21.557Z,35.20
2023-01-19T06:36:21.539Z,46.10
2023-01-19T06:37:21.528Z,47.40
2023-01-19T06:38:21.508Z,46.60
2023-01-19T06:39:21.496Z,53.40
2023-01-19T06:40:21.520Z,45.70
2023-01-19T06:41:21.475Z,40.80
2023-01-19T06:42:21.456Z,45.00
2023-01-19T06:43:21.460Z,48.40
2023-01-19T06:44:21.434Z,49.20
2023-01-19T06:45:21.435Z,46.60
2023-01-19T06:46:21.411Z,49.20
2023-01-19T06:47:21.399Z,44.60
2023-01-19T06:48:21.378Z,54.70
2023-01-19T06:49:21.376Z,51.10
2023-01-19T06:50:21.365Z,44.40
2023-01-19T06:51:21.343Z,42.80
2023-01-19T06:52:21.332Z,57.50
2023-01-19T06:53:21.461Z,50.00
2023-01-19T06:54:21.304Z,50.20
2023-01-19T06:55:21.306Z,44.40
2023-01-19T06:56:21.281Z,43.10
2023-01-19T06:57:21.281Z,43.50
2023-01-19T06:58:21.282Z,42.10
2023-01-19T06:59:21.241Z,41.10
2023-01-19T07:00:21.240Z,39.20
2023-01-19T07:01:21.303Z,47.50
2023-01-19T07:02:27.340Z,42.30
2023-01-19T07:03:22.280Z,34.50
2023-01-19T07:04:21.190Z,38.30
2023-01-19T07:05:21.181Z,42.90
2023-01-19T07:06:21.161Z,47.90
2023-01-19T07:07:21.151Z,43.20
2023-01-19T07:08:21.135Z,47.20
2023-01-19T07:09:21.121Z,48.00
2023-01-19T07:10:21.111Z,42.00
2023-01-19T07:11:25.977Z,41.10
2023-01-19T07:12:22.092Z,43.80
2023-01-19T07:13:21.069Z,48.90
2023-01-19T07:14:21.050Z,41.80
2023-01-19T07:15:21.047Z,38.10
2023-01-19T07:16:21.098Z,48.60
2023-01-19T07:17:21.026Z,42.50
2023-01-19T07:18:21.005Z,48.20
2023-01-19T07:19:20.996Z,44.10
2023-01-19T07:20:20.976Z,42.20
2023-01-19T07:21:20.995Z,43.50
2023-01-19T07:22:20.966Z,43.80
2023-01-19T07:23:20.946Z,50.20
2023-01-19T07:24:20.926Z,47.10
2023-01-19T07:25:20.938Z,44.40
2023-01-19T07:26:20.923Z,26.50
2023-01-19T07:27:20.926Z,25.40
2023-01-19T07:28:20.876Z,42.50
2023-01-19T07:29:20.865Z,42.50
2023-01-19T07:30:20.854Z,43.20
2023-01-19T07:31:20.969Z,45.70
2023-01-19T07:32:20.895Z,45.70
2023-01-19T07:33:20.816Z,34.00
2023-01-19T07:34:20.826Z,49.10
2023-01-19T07:35:20.809Z,49.80
2023-01-19T07:36:20.802Z,44.90
2023-01-19T07:37:20.763Z,50.30
2023-01-19T07:38:20.761Z,51.30
2023-01-19T07:39:20.749Z,40.50
2023-01-19T07:40:22.163Z,43.50
2023-01-19T07:41:20.739Z,45.10
2023-01-19T07:42:20.702Z,45.50
2023-01-19T07:43:20.692Z,49.70
2023-01-19T07:44:20.684Z,43.70
2023-01-19T07:45:20.675Z,47.20
2023-01-19T07:46:20.738Z,45.70
2023-01-19T07:47:20.650Z,51.50
2023-01-19T07:48:20.630Z,43.40
2023-01-19T07:49:20.643Z,46.00
2023-01-19T07:50:20.599Z,47.80
2023-01-19T07:51:20.599Z,44.10
2023-01-19T07:52:20.579Z,44.80
2023-01-19T07:53:20.571Z,31.20
2023-01-19T07:54:20.550Z,39.20
2023-01-19T07:55:20.559Z,50.90
2023-01-19T07:56:20.538Z,47.10
2023-01-19T07:57:20.517Z,46.30
2023-01-19T07:58:20.502Z,53.10
2023-01-19T07:59:20.498Z,39.70
2023-01-19T08:00:20.475Z,45.10
2023-01-19T08:01:20.539Z,40.60
2023-01-19T08:02:20.525Z,41.10
2023-01-19T08:03:20.492Z,37.70
2023-01-19T08:04:20.447Z,41.30
2023-01-19T08:05:20.434Z,56.00
2023-01-19T08:06:20.417Z,26.50
2023-01-19T08:07:20.399Z,51.90
2023-01-19T08:08:20.406Z,35.10
2023-01-19T08:09:20.366Z,47.30
2023-01-19T08:10:20.354Z,52.40
2023-01-19T08:11:20.370Z,50.70
2023-01-19T08:12:20.333Z,53.30
2023-01-19T08:13:20.332Z,37.60
2023-01-19T08:14:20.303Z,35.20
2023-01-19T08:15:20.323Z,51.00
2023-01-19T08:16:20.304Z,54.30
2023-01-19T08:17:20.274Z,55.50
2023-01-19T08:18:20.259Z,48.80
2023-01-19T08:19:20.241Z,52.00
2023-01-19T08:20:20.238Z,49.30
2023-01-19T08:21:20.213Z,46.00
2023-01-19T08:22:20.224Z,46.30
2023-01-19T08:23:20.191Z,49.80
2023-01-19T08:24:20.235Z,54.70
2023-01-19T08:25:20.173Z,63.70
2023-01-19T08:26:20.196Z,55.10
2023-01-19T08:27:20.149Z,50.50
2023-01-19T08:28:20.132Z,90.70
2023-01-19T08:29:20.120Z,357.30
2023-01-19T08:30:20.101Z,331.00
2023-01-19T08:31:23.568Z,68.10
2023-01-19T08:32:20.168Z,70.60
2023-01-19T08:33:20.060Z,70.70
2023-01-19T08:34:20.050Z,45.90
2023-01-19T08:35:20.041Z,53.50
2023-01-19T08:36:20.048Z,78.50
2023-01-19T08:37:20.018Z,53.00
2023-01-19T08:38:20.004Z,97.40
2023-01-19T08:39:19.990Z,59.40
2023-01-19T08:40:19.980Z,50.50
2023-01-19T08:41:19.967Z,60.10
2023-01-19T08:42:19.970Z,69.30
2023-01-19T08:43:19.941Z,75.90
2023-01-19T08:44:19.929Z,90.10
2023-01-19T08:45:19.906Z,81.00
2023-01-19T08:46:19.981Z,47.60
2023-01-19T08:47:20.042Z,48.10
2023-01-19T08:48:19.993Z,41.70
2023-01-19T08:49:19.867Z,52.80
2023-01-19T08:50:19.907Z,32.40
2023-01-19T08:51:19.942Z,36.30
2023-01-19T08:52:19.845Z,39.30
2023-01-19T08:53:19.821Z,45.10
2023-01-19T08:54:19.804Z,38.90
2023-01-19T08:55:19.787Z,29.30
2023-01-19T08:56:20.812Z,31.10
2023-01-19T08:57:19.785Z,38.40
2023-01-19T08:58:19.749Z,33.50
2023-01-19T08:59:19.743Z,35.60
2023-01-19T09:00:19.755Z,32.90
2023-01-19T09:01:19.831Z,38.00
2023-01-19T09:02:19.741Z,38.60
2023-01-19T09:03:19.746Z,36.50
2023-01-19T09:04:19.677Z,42.90
2023-01-19T09:05:19.723Z,31.90
2023-01-19T09:06:19.647Z,35.90
2023-01-19T09:07:19.644Z,38.10
2023-01-19T09:08:19.612Z,36.20
2023-01-19T09:09:19.631Z,21.10
2023-01-19T09:10:19.606Z,46.00
2023-01-19T09:11:19.580Z,22.60
2023-01-19T09:12:19.580Z,40.90
2023-01-19T09:13:19.570Z,57.70
2023-01-19T09:14:19.539Z,41.90
2023-01-19T09:15:19.551Z,42.20
2023-01-19T09:16:19.554Z,36.80
2023-01-19T09:17:19.519Z,50.40
2023-01-19T09:18:19.503Z,42.20
2023-01-19T09:19:19.498Z,36.70
2023-01-19T09:20:19.469Z,43.30
2023-01-19T09:21:19.459Z,42.10
2023-01-19T09:22:19.458Z,46.50
2023-01-19T09:23:19.454Z,44.60
2023-01-19T09:24:19.418Z,42.60
2023-01-19T09:25:19.407Z,42.30
2023-01-19T09:26:19.388Z,41.60
2023-01-19T09:27:19.391Z,36.40
2023-01-19T09:28:19.373Z,34.80
2023-01-19T09:29:19.356Z,43.00
2023-01-19T09:30:19.352Z,40.10
2023-01-19T09:31:19.460Z,43.50
2023-01-19T09:32:19.324Z,38.80
2023-01-19T09:33:19.322Z,44.00
2023-01-19T09:34:19.295Z,41.20
2023-01-19T09:35:19.302Z,41.20
2023-01-19T09:36:19.264Z,33.90
2023-01-19T09:37:19.275Z,41.80
2023-01-19T09:38:19.235Z,34.90
2023-01-19T09:39:19.239Z,38.60
2023-01-19T09:40:19.243Z,46.10
2023-01-19T09:41:19.285Z,38.50
2023-01-19T09:42:19.203Z,37.20
2023-01-19T09:43:19.186Z,37.60
2023-01-19T09:44:19.168Z,30.20
2023-01-19T09:45:19.153Z,30.60
2023-01-19T09:46:19.164Z,44.90
2023-01-19T09:47:19.135Z,36.10
2023-01-19T09:48:19.128Z,39.10
2023-01-19T09:49:19.115Z,38.60
2023-01-19T09:50:19.090Z,41.00
2023-01-19T09:51:19.081Z,42.10
2023-01-19T09:52:19.072Z,37.20
2023-01-19T09:53:19.052Z,40.90
2023-01-19T09:54:19.043Z,36.40
2023-01-19T09:55:19.021Z,28.50
2023-01-19T09:56:19.015Z,33.60
2023-01-19T09:57:19.037Z,36.00
2023-01-19T09:58:18.991Z,37.20
2023-01-19T09:59:18.978Z,31.60
2023-01-19T10:00:18.963Z,38.60
2023-01-19T10:01:19.078Z,38.20
2023-01-19T10:02:18.954Z,36.10
2023-01-19T10:03:19.010Z,39.90
2023-01-19T10:04:18.923Z,38.10
2023-01-19T10:05:18.902Z,36.40
2023-01-19T10:06:18.893Z,37.10
2023-01-19T10:07:18.889Z,37.90
2023-01-19T10:08:18.878Z,36.90
2023-01-19T10:09:18.859Z,34.60
2023-01-19T10:10:18.841Z,38.70
2023-01-19T10:11:18.843Z,42.20
2023-01-19T10:12:19.893Z,34.30
2023-01-19T10:13:18.817Z,38.10
2023-01-19T10:14:18.934Z,23.80
2023-01-19T10:15:18.783Z,30.40
2023-01-19T10:16:18.824Z,35.00
2023-01-19T10:17:18.765Z,31.20
2023-01-19T10:18:18.745Z,26.40
2023-01-19T10:19:18.722Z,27.80
2023-01-19T10:20:18.710Z,29.00
2023-01-19T10:21:18.704Z,28.80
2023-01-19T10:22:18.675Z,25.10
2023-01-19T10:23:18.698Z,31.00
2023-01-19T10:24:18.655Z,31.90
2023-01-19T10:25:18.712Z,35.10
2023-01-19T10:26:18.632Z,28.30
2023-01-19T10:27:18.622Z,25.60
2023-01-19T10:28:18.612Z,25.80
2023-01-19T10:29:18.619Z,33.20
2023-01-19T10:30:18.612Z,28.10
2023-01-19T10:31:18.734Z,32.50
2023-01-19T10:32:18.555Z,29.80
2023-01-19T10:33:18.579Z,29.50
2023-01-19T10:34:20.950Z,26.20
2023-01-19T10:35:18.523Z,28.10
2023-01-19T10:36:18.509Z,31.30
2023-01-19T10:37:18.542Z,37.10
2023-01-19T10:38:18.503Z,22.90
2023-01-19T10:39:18.473Z,35.80
2023-01-19T10:40:18.508Z,32.20
2023-01-19T10:41:18.450Z,34.70
2023-01-19T10:42:18.434Z,37.00
2023-01-19T10:43:18.482Z,29.70
2023-01-19T10:44:18.405Z,32.70
2023-01-19T10:45:18.408Z,32.60
2023-01-19T10:46:18.428Z,32.00
2023-01-19T10:47:18.416Z,38.40
2023-01-19T10:48:18.373Z,39.20
2023-01-19T10:49:18.339Z,28.60
2023-01-19T10:50:18.418Z,34.40
2023-01-19T10:51:18.386Z,35.00
2023-01-19T10:52:19.099Z,37.90
2023-01-19T10:53:18.299Z,30.00
2023-01-19T10:54:18.302Z,36.70
2023-01-19T10:55:18.320Z,33.70
2023-01-19T10:56:18.252Z,34.90
2023-01-19T10:57:18.225Z,35.80
2023-01-19T10:58:19.010Z,34.10
2023-01-19T10:59:18.316Z,36.30
2023-01-19T11:00:18.260Z,34.10
2023-01-19T11:01:18.311Z,32.80
2023-01-19T11:02:18.454Z,40.20
2023-01-19T11:03:18.239Z,39.20
2023-01-19T11:04:18.142Z,35.50
2023-01-19T11:05:18.136Z,56.20
2023-01-19T11:06:18.115Z,34.00
2023-01-19T11:07:18.106Z,89.70
2023-01-19T11:08:18.100Z,42.70
2023-01-19T11:09:18.091Z,220.20
2023-01-19T11:10:18.195Z,59.80
2023-01-19T11:11:18.057Z,62.20
2023-01-19T11:12:18.034Z,129.20
2023-01-19T11:13:18.044Z,99.10
2023-01-19T11:14:18.022Z,47.50
2023-01-19T11:15:18.020Z,71.30
2023-01-19T11:16:18.009Z,36.10
2023-01-19T11:17:17.973Z,33.10
2023-01-19T11:18:17.973Z,35.50
2023-01-19T11:19:17.953Z,32.50
2023-01-19T11:20:17.946Z,36.50
2023-01-19T11:21:17.936Z,33.60
2023-01-19T11:22:17.923Z,40.80
2023-01-19T11:23:17.903Z,36.10
2023-01-19T11:24:17.892Z,35.30
2023-01-19T11:25:17.883Z,36.60
2023-01-19T11:26:17.863Z,30.90
2023-01-19T11:27:17.853Z,33.60
2023-01-19T11:28:17.852Z,38.20
2023-01-19T11:29:17.821Z,31.10
2023-01-19T11:30:17.838Z,36.50
2023-01-19T11:31:17.878Z,38.50
2023-01-19T11:32:17.791Z,40.00
2023-01-19T11:33:17.779Z,38.60
2023-01-19T11:34:17.770Z,34.20
2023-01-19T11:35:17.749Z,40.00
2023-01-19T11:36:17.748Z,30.20
2023-01-19T11:37:17.720Z,29.40
2023-01-19T11:38:17.709Z,30.60
2023-01-19T11:39:17.720Z,32.60
2023-01-19T11:40:17.688Z,28.40
2023-01-19T11:41:17.670Z,23.10
2023-01-19T11:42:17.672Z,25.80
2023-01-19T11:43:17.645Z,22.00
2023-01-19T11:44:17.649Z,26.90
2023-01-19T11:45:17.619Z,18.70
2023-01-19T11:46:17.673Z,27.50
2023-01-19T11:47:17.597Z,27.30
2023-01-19T11:48:17.585Z,28.60
2023-01-19T11:49:17.578Z,24.10
2023-01-19T11:50:17.558Z,19.10
2023-01-19T11:51:17.584Z,21.00
2023-01-19T11:52:17.616Z,18.60
2023-01-19T11:53:17.525Z,19.90
2023-01-19T11:54:17.526Z,19.80
2023-01-19T11:55:17.508Z,19.10
2023-01-19T11:56:17.486Z,19.40
2023-01-19T11:57:17.479Z,19.80
2023-01-19T11:58:17.462Z,19.10
2023-01-19T11:59:17.450Z,27.70
2023-01-19T12:00:17.425Z,23.20
2023-01-19T12:01:17.453Z,29.80
2023-01-19T12:02:17.430Z,25.80
2023-01-19T12:03:17.423Z,24.70
2023-01-19T12:04:17.411Z,29.30
2023-01-19T12:05:17.355Z,24.60
2023-01-19T12:06:17.366Z,22.60
2023-01-19T12:07:17.340Z,24.40
2023-01-19T12:08:17.326Z,27.50
2023-01-19T12:09:17.320Z,20.00
2023-01-19T12:10:17.296Z,19.20
2023-01-19T12:11:17.285Z,23.30
2023-01-19T12:12:17.275Z,23.00
2023-01-19T12:13:17.255Z,24.20
2023-01-19T12:14:17.269Z,25.90
2023-01-19T12:15:17.236Z,28.70
2023-01-19T12:16:17.324Z,32.00
2023-01-19T12:17:17.230Z,27.80
2023-01-19T12:18:17.194Z,27.80
2023-01-19T12:19:17.198Z,20.60
2023-01-19T12:20:17.175Z,24.20
2023-01-19T12:21:17.153Z,21.70
2023-01-19T12:22:17.148Z,24.30
2023-01-19T12:23:17.123Z,25.30
2023-01-19T12:24:17.166Z,22.60
2023-01-19T12:25:17.103Z,26.90
2023-01-19T12:26:17.096Z,26.80
2023-01-19T12:27:17.082Z,24.70
2023-01-19T12:28:17.071Z,21.50
2023-01-19T12:29:17.073Z,26.80
2023-01-19T12:30:17.045Z,22.10
2023-01-19T12:31:17.172Z,23.40
2023-01-19T12:32:17.020Z,29.30
2023-01-19T12:33:17.010Z,28.70
2023-01-19T12:34:17.004Z,24.70
2023-01-19T12:35:16.982Z,26.10
2023-01-19T12:36:16.973Z,26.20
2023-01-19T12:37:16.949Z,23.60
2023-01-19T12:38:16.950Z,27.70
2023-01-19T12:39:16.949Z,30.00
2023-01-19T12:40:16.919Z,30.00
2023-01-19T12:41:16.902Z,28.60
2023-01-19T12:42:16.906Z,36.30
2023-01-19T12:43:16.871Z,28.90
2023-01-19T12:44:16.922Z,33.40
2023-01-19T12:45:16.851Z,30.80
2023-01-19T12:46:16.936Z,29.50
2023-01-19T12:47:16.826Z,29.30
2023-01-19T12:48:16.818Z,29.40
2023-01-19T12:49:16.823Z,31.90
2023-01-19T12:50:16.909Z,31.00
2023-01-19T12:51:16.796Z,31.10
2023-01-19T12:52:16.772Z,30.50
2023-01-19T12:53:16.796Z,28.40
2023-01-19T12:54:16.771Z,34.00
2023-01-19T12:55:16.777Z,34.10
2023-01-19T12:56:16.731Z,34.90
2023-01-19T12:57:16.727Z,27.80
2023-01-19T12:58:16.689Z,29.20
2023-01-19T12:59:16.678Z,22.20
2023-01-19T13:00:16.680Z,28.90
2023-01-19T13:01:16.791Z,29.40
2023-01-19T13:02:16.768Z,33.60
2023-01-19T13:03:16.634Z,31.50
2023-01-19T13:04:16.618Z,26.60
2023-01-19T13:05:16.604Z,29.50
2023-01-19T13:06:16.585Z,29.70
2023-01-19T13:07:16.595Z,30.10
2023-01-19T13:08:16.575Z,34.70
2023-01-19T13:09:16.626Z,27.10
2023-01-19T13:10:16.544Z,38.90
2023-01-19T13:11:16.524Z,36.70
2023-01-19T13:12:16.516Z,31.50
2023-01-19T13:13:16.544Z,26.90
2023-01-19T13:14:16.486Z,31.20
2023-01-19T13:15:16.486Z,36.60
2023-01-19T13:16:16.519Z,30.00
2023-01-19T13:17:16.462Z,30.80
2023-01-19T13:18:16.443Z,27.20
2023-01-19T13:19:16.436Z,30.80
2023-01-19T13:20:16.432Z,28.90
2023-01-19T13:21:16.401Z,26.70
2023-01-19T13:22:16.412Z,28.20
2023-01-19T13:23:16.371Z,25.40
2023-01-19T13:24:16.374Z,33.10
2023-01-19T13:25:16.399Z,31.20
2023-01-19T13:26:16.358Z,28.00
2023-01-19T13:27:16.331Z,26.90
2023-01-19T13:28:16.330Z,21.10
2023-01-19T13:29:16.303Z,29.00
2023-01-19T13:30:16.324Z,25.80
2023-01-19T13:31:16.362Z,27.00
2023-01-19T13:32:16.263Z,28.50
2023-01-19T13:33:16.250Z,32.30
2023-01-19T13:34:16.238Z,27.90
2023-01-19T13:35:16.240Z,26.10
2023-01-19T13:36:16.263Z,26.00
2023-01-19T13:37:16.191Z,30.20
2023-01-19T13:38:16.178Z,28.70
2023-01-19T13:39:18.334Z,27.70
2023-01-19T13:40:16.170Z,29.00
2023-01-19T13:41:16.148Z,29.10
2023-01-19T13:42:16.128Z,30.10
2023-01-19T13:43:16.128Z,32.00
2023-01-19T13:44:16.098Z,31.60
2023-01-19T13:45:16.118Z,30.50
2023-01-19T13:46:16.119Z,39.60
2023-01-19T13:47:16.087Z,29.80
2023-01-19T13:48:16.064Z,28.90
2023-01-19T13:49:16.047Z,30.80
2023-01-19T13:50:16.037Z,25.50
2023-01-19T13:51:16.018Z,26.40
2023-01-19T13:52:16.009Z,28.00
2023-01-19T13:53:15.996Z,32.00
2023-01-19T13:54:15.987Z,34.20
2023-01-19T13:55:15.978Z,25.20
2023-01-19T13:56:15.965Z,30.10
2023-01-19T13:57:15.941Z,30.20
2023-01-19T13:58:15.924Z,28.80
2023-01-19T13:59:15.971Z,29.00
2023-01-19T14:00:15.906Z,30.10
2023-01-19T14:01:15.978Z,28.60
2023-01-19T14:02:15.947Z,35.00
2023-01-19T14:03:15.954Z,30.20
2023-01-19T14:04:15.860Z,30.80
2023-01-19T14:05:15.857Z,34.90
2023-01-19T14:06:15.848Z,31.20
2023-01-19T14:07:15.843Z,30.20
2023-01-19T14:08:15.816Z,32.40
2023-01-19T14:09:15.784Z,36.00
2023-01-19T14:10:15.787Z,30.90
2023-01-19T14:11:15.763Z,29.20
2023-01-19T14:12:15.805Z,34.80
2023-01-19T14:13:15.765Z,30.50
2023-01-19T14:14:15.751Z,28.00
2023-01-19T14:15:15.712Z,39.30
2023-01-19T14:16:15.797Z,34.50
2023-01-19T14:17:15.746Z,29.90
2023-01-19T14:18:15.680Z,27.60
2023-01-19T14:19:15.705Z,31.40
2023-01-19T14:20:15.661Z,35.80
2023-01-19T14:21:15.630Z,31.10
2023-01-19T14:22:15.625Z,34.30
2023-01-19T14:23:15.602Z,30.10
2023-01-19T14:24:16.950Z,31.80
2023-01-19T14:25:15.600Z,31.90
2023-01-19T14:26:15.580Z,31.70
2023-01-19T14:27:15.564Z,28.70
2023-01-19T14:28:15.551Z,29.90
2023-01-19T14:29:15.530Z,33.40
2023-01-19T14:30:15.532Z,35.10
2023-01-19T14:31:22.770Z,32.20
2023-01-19T14:32:15.493Z,33.70
2023-01-19T14:33:15.607Z,28.00
2023-01-19T14:34:15.471Z,36.00
2023-01-19T14:35:15.470Z,34.20
2023-01-19T14:36:17.665Z,34.30
2023-01-19T14:37:15.472Z,33.40
2023-01-19T14:38:15.455Z,31.90
2023-01-19T14:39:15.419Z,37.70
2023-01-19T14:40:15.419Z,36.30
2023-01-19T14:41:15.371Z,35.50
2023-01-19T14:42:17.436Z,33.40
2023-01-19T14:43:15.351Z,32.90
2023-01-19T14:44:15.350Z,38.80
2023-01-19T14:45:15.422Z,32.70
2023-01-19T14:46:15.337Z,37.30
2023-01-19T14:47:15.322Z,36.50
2023-01-19T14:48:17.815Z,38.60
2023-01-19T14:49:15.269Z,43.30
2023-01-19T14:50:15.261Z,37.60
2023-01-19T14:51:15.260Z,33.00
2023-01-19T14:52:15.241Z,33.10
2023-01-19T14:53:15.233Z,41.50
2023-01-19T14:54:15.221Z,38.00
2023-01-19T14:55:15.198Z,37.00
2023-01-19T14:56:15.208Z,39.00
2023-01-19T14:57:15.197Z,50.20
2023-01-19T14:58:15.188Z,42.90
2023-01-19T14:59:15.160Z,44.50
2023-01-19T15:00:17.247Z,42.00
2023-01-19T15:01:15.271Z,43.80
2023-01-19T15:02:15.151Z,52.00
2023-01-19T15:03:15.096Z,50.60
2023-01-19T15:04:15.085Z,50.50
2023-01-19T15:05:15.072Z,47.20
2023-01-19T15:06:15.073Z,45.40
2023-01-19T15:07:15.045Z,42.20
2023-01-19T15:08:15.034Z,39.70
2023-01-19T15:09:15.030Z,37.10
2023-01-19T15:10:15.017Z,44.40
2023-01-19T15:11:15.004Z,40.80
2023-01-19T15:12:17.197Z,36.60
2023-01-19T15:13:14.963Z,37.50
2023-01-19T15:14:14.953Z,35.00
2023-01-19T15:15:14.943Z,37.40
2023-01-19T15:16:15.031Z,55.80
2023-01-19T15:17:14.933Z,32.40
2023-01-19T15:18:15.747Z,37.70
2023-01-19T15:19:14.901Z,34.50
2023-01-19T15:20:14.896Z,37.70
2023-01-19T15:21:14.892Z,37.00
2023-01-19T15:22:14.864Z,33.80
2023-01-19T15:23:14.847Z,40.30
2023-01-19T15:24:17.580Z,38.30
2023-01-19T15:25:14.821Z,37.40
2023-01-19T15:26:14.831Z,46.10
2023-01-19T15:27:14.792Z,38.10
2023-01-19T15:28:14.792Z,40.70
2023-01-19T15:29:14.778Z,45.00
2023-01-19T15:30:14.774Z,36.50
2023-01-19T15:31:14.794Z,40.40
2023-01-19T15:32:14.774Z,45.90
2023-01-19T15:33:14.710Z,46.40
2023-01-19T15:34:14.702Z,40.60
2023-01-19T15:35:14.695Z,36.10
2023-01-19T15:36:16.941Z,46.00
2023-01-19T15:37:14.659Z,39.90
2023-01-19T15:38:14.650Z,44.00
2023-01-19T15:39:14.632Z,52.20
2023-01-19T15:40:14.668Z,42.30
2023-01-19T15:41:14.629Z,37.60
2023-01-19T15:42:14.634Z,44.70
2023-01-19T15:43:14.594Z,43.10
2023-01-19T15:44:14.578Z,45.50
2023-01-19T15:45:14.569Z,43.10
2023-01-19T15:46:14.567Z,37.40
2023-01-19T15:47:14.551Z,44.60
2023-01-19T15:48:14.519Z,48.70
2023-01-19T15:49:14.540Z,51.60
2023-01-19T15:50:14.487Z,47.10
2023-01-19T15:51:14.516Z,47.50
2023-01-19T15:52:16.949Z,48.40
2023-01-19T15:53:14.478Z,44.30
2023-01-19T15:54:14.449Z,44.60
2023-01-19T15:55:14.444Z,50.90
2023-01-19T15:56:14.474Z,47.60
2023-01-19T15:57:14.426Z,52.00
2023-01-19T15:58:14.395Z,53.60
2023-01-19T15:59:14.399Z,53.40
2023-01-19T16:00:14.418Z,52.30
2023-01-19T16:01:14.484Z,62.20
2023-01-19T16:02:14.475Z,74.90
2023-01-19T16:03:14.327Z,65.60
2023-01-19T16:04:16.540Z,60.00
2023-01-19T16:05:14.323Z,72.60
2023-01-19T16:06:14.293Z,55.90
2023-01-19T16:07:14.314Z,53.90
2023-01-19T16:08:14.271Z,47.10
2023-01-19T16:09:14.268Z,49.30
2023-01-19T16:10:14.243Z,52.00
2023-01-19T16:11:14.227Z,52.30
2023-01-19T16:12:14.235Z,50.10
2023-01-19T16:13:14.202Z,52.90
2023-01-19T16:14:15.558Z,54.30
2023-01-19T16:15:14.191Z,51.50
2023-01-19T16:16:14.193Z,48.40
2023-01-19T16:17:14.162Z,51.50
2023-01-19T16:18:14.180Z,45.70
2023-01-19T16:19:14.130Z,52.50
2023-01-19T16:20:14.949Z,56.10
2023-01-19T16:21:14.102Z,51.50
2023-01-19T16:22:14.172Z,50.90
2023-01-19T16:23:15.354Z,49.60
2023-01-19T16:24:14.077Z,57.10
2023-01-19T16:25:14.047Z,54.30
2023-01-19T16:26:15.198Z,57.00
2023-01-19T16:27:14.036Z,49.60
2023-01-19T16:28:14.013Z,57.50
2023-01-19T16:29:14.002Z,53.30
2023-01-19T16:30:13.987Z,55.50
2023-01-19T16:31:14.021Z,57.70
2023-01-19T16:32:14.604Z,53.20
2023-01-19T16:33:13.973Z,55.70
2023-01-19T16:34:13.949Z,55.70
2023-01-19T16:35:13.948Z,57.70
2023-01-19T16:36:13.937Z,58.90
2023-01-19T16:37:13.939Z,66.20
2023-01-19T16:38:13.893Z,62.90
2023-01-19T16:39:13.881Z,75.10
2023-01-19T16:40:13.876Z,53.80
2023-01-19T16:41:13.840Z,69.20
2023-01-19T16:42:13.869Z,66.10
2023-01-19T16:43:13.815Z,60.10
2023-01-19T16:44:13.828Z,61.40
2023-01-19T16:45:13.799Z,55.80
2023-01-19T16:46:13.872Z,54.30
2023-01-19T16:47:13.774Z,64.20
2023-01-19T16:48:13.775Z,66.10
2023-01-19T16:49:13.751Z,64.90
2023-01-19T16:50:13.736Z,64.80
2023-01-19T16:51:13.713Z,65.40
2023-01-19T16:52:13.724Z,64.70
2023-01-19T16:53:13.692Z,57.70
2023-01-19T16:54:13.704Z,63.40
2023-01-19T16:55:13.699Z,63.30
2023-01-19T16:56:13.675Z,58.40
2023-01-19T16:57:13.651Z,61.70
2023-01-19T16:58:13.631Z,65.20
2023-01-19T16:59:13.631Z,63.80
2023-01-19T17:00:13.968Z,67.50
2023-01-19T17:01:13.704Z,82.60
2023-01-19T17:02:13.714Z,61.00
2023-01-19T17:03:13.561Z,64.60
2023-01-19T17:04:13.600Z,61.30
2023-01-19T17:05:13.569Z,62.80
2023-01-19T17:06:13.542Z,66.50
2023-01-19T17:07:13.526Z,64.30
2023-01-19T17:08:13.529Z,75.40
2023-01-19T17:09:13.480Z,64.40
2023-01-19T17:10:13.836Z,63.00
2023-01-19T17:11:13.467Z,66.10
2023-01-19T17:12:13.486Z,61.80
2023-01-19T17:13:13.439Z,65.90
2023-01-19T17:14:13.434Z,114.70
2023-01-19T17:15:13.420Z,88.90
2023-01-19T17:16:13.412Z,72.10
2023-01-19T17:17:13.427Z,68.80
2023-01-19T17:18:13.387Z,58.40
2023-01-19T17:19:13.377Z,67.10
2023-01-19T17:20:13.686Z,60.00
2023-01-19T17:21:13.356Z,68.60
2023-01-19T17:22:13.340Z,72.70
2023-01-19T17:23:13.317Z,61.40
2023-01-19T17:24:13.302Z,100.50
2023-01-19T17:25:13.285Z,72.50
2023-01-19T17:26:13.278Z,158.50
2023-01-19T17:27:13.313Z,332.20
2023-01-19T17:28:13.258Z,141.60
2023-01-19T17:29:13.256Z,111.40
2023-01-19T17:30:13.651Z,78.40
2023-01-19T17:31:14.332Z,127.50
2023-01-19T17:32:13.231Z,56.00
2023-01-19T17:33:13.188Z,138.30
2023-01-19T17:34:13.183Z,104.20
2023-01-19T17:35:13.165Z,88.80
2023-01-19T17:36:13.152Z,76.70
2023-01-19T17:37:13.162Z,176.90
2023-01-19T17:38:13.142Z,166.90
2023-01-19T17:39:13.110Z,80.20
2023-01-19T17:40:13.394Z,77.70
2023-01-19T17:41:13.100Z,119.10
2023-01-19T17:42:13.083Z,110.50
2023-01-19T17:43:13.062Z,80.30
2023-01-19T17:44:13.067Z,75.30
2023-01-19T17:45:13.030Z,102.90
2023-01-19T17:46:13.055Z,63.50
2023-01-19T17:47:13.020Z,59.90
2023-01-19T17:48:13.005Z,60.70
2023-01-19T17:49:12.991Z,127.30
2023-01-19T17:50:13.304Z,64.20
2023-01-19T17:51:12.982Z,61.90
2023-01-19T17:52:12.981Z,57.10
2023-01-19T17:53:12.976Z,63.80
2023-01-19T17:54:12.928Z,129.20
2023-01-19T17:55:12.949Z,71.90
2023-01-19T17:56:12.930Z,66.00
2023-01-19T17:57:12.872Z,88.40
2023-01-19T17:58:12.888Z,276.90
2023-01-19T17:59:12.849Z,82.30
2023-01-19T18:00:13.196Z,45.60
2023-01-19T18:01:12.906Z,41.00
2023-01-19T18:02:13.001Z,58.60
2023-01-19T18:03:12.812Z,35.80
2023-01-19T18:04:12.807Z,43.20
2023-01-19T18:05:12.777Z,34.20
2023-01-19T18:06:12.766Z,81.00
2023-01-19T18:07:12.777Z,48.20